sensor_id;sensor_type;location;lat;lon;timestamp;P1;durP1;ratioP1;P2;durP2;ratioP2
20888;SDS011;10604;51.976;7.594;2022-08-19T00:00:05;5.15;;;4.40;;
20888;SDS011;10604;51.976;7.594;2022-08-19T00:02:33;5.23;;;4.73;;
20888;SDS011;10604;51.976;7.594;2022-08-19T00:04:59;4.77;;;4.30;;
20888;SDS011;10604;51.976;7.594;2022-08-19T00:07:25;6.63;;;4.82;;
20888;SDS011;10604;51.976;7.594;2022-08-19T00:09:50;4.60;;;4.20;;
20888;SDS011;10604;51.976;7.594;2022-08-19T00:12:15;5.20;;;4.70;;
20888;SDS011;10604;51.976;7.594;2022-08-19T00:14:41;5.32;;;4.82;;
20888;SDS011;10604;51.976;7.594;2022-08-19T00:17:07;5.37;;;4.87;;
20888;SDS011;10604;51.976;7.594;2022-08-19T00:19:34;5.03;;;4.47;;
20888;SDS011;10604;51.976;7.594;2022-08-19T00:22:01;5.30;;;4.75;;
20888;SDS011;10604;51.976;7.594;2022-08-19T00:24:27;4.93;;;4.53;;
20888;SDS011;10604;51.976;7.594;2022-08-19T00:26:53;5.57;;;5.00;;
20888;SDS011;10604;51.976;7.594;2022-08-19T00:29:20;6.10;;;5.00;;
20888;SDS011;10604;51.976;7.594;2022-08-19T00:31:46;5.50;;;4.97;;
20888;SDS011;10604;51.976;7.594;2022-08-19T00:34:12;5.28;;;4.65;;
20888;SDS011;10604;51.976;7.594;2022-08-19T00:36:42;5.80;;;5.20;;
20888;SDS011;10604;51.976;7.594;2022-08-19T00:39:08;5.72;;;5.15;;
20888;SDS011;10604;51.976;7.594;2022-08-19T00:41:34;5.70;;;5.20;;
20888;SDS011;10604;51.976;7.594;2022-08-19T00:46:30;6.35;;;5.75;;
20888;SDS011;10604;51.976;7.594;2022-08-19T00:48:57;7.07;;;6.28;;
20888;SDS011;10604;51.976;7.594;2022-08-19T00:51:24;6.85;;;6.15;;
20888;SDS011;10604;51.976;7.594;2022-08-19T00:53:52;6.75;;;6.15;;
20888;SDS011;10604;51.976;7.594;2022-08-19T00:56:19;7.03;;;5.85;;
20888;SDS011;10604;51.976;7.594;2022-08-19T00:58:45;6.37;;;5.77;;
20888;SDS011;10604;51.976;7.594;2022-08-19T01:01:11;7.30;;;5.40;;
20888;SDS011;10604;51.976;7.594;2022-08-19T01:03:36;5.97;;;5.43;;
20888;SDS011;10604;51.976;7.594;2022-08-19T01:06:02;5.57;;;5.00;;
20888;SDS011;10604;51.976;7.594;2022-08-19T01:08:27;5.80;;;5.20;;
20888;SDS011;10604;51.976;7.594;2022-08-19T01:10:54;5.53;;;4.88;;
20888;SDS011;10604;51.976;7.594;2022-08-19T01:13:23;6.05;;;5.45;;
20888;SDS011;10604;51.976;7.594;2022-08-19T01:15:57;6.45;;;5.05;;
20888;SDS011;10604;51.976;7.594;2022-08-19T01:18:28;5.60;;;5.10;;
20888;SDS011;10604;51.976;7.594;2022-08-19T01:20:56;5.90;;;5.30;;
20888;SDS011;10604;51.976;7.594;2022-08-19T01:23:26;5.70;;;5.07;;
20888;SDS011;10604;51.976;7.594;2022-08-19T01:26:07;6.03;;;5.53;;
20888;SDS011;10604;51.976;7.594;2022-08-19T01:28:42;5.68;;;5.07;;
20888;SDS011;10604;51.976;7.594;2022-08-19T01:31:12;5.93;;;5.32;;
20888;SDS011;10604;51.976;7.594;2022-08-19T01:33:43;6.00;;;5.40;;
20888;SDS011;10604;51.976;7.594;2022-08-19T01:36:13;6.80;;;5.85;;
20888;SDS011;10604;51.976;7.594;2022-08-19T01:38:47;5.65;;;5.10;;
20888;SDS011;10604;51.976;7.594;2022-08-19T01:41:13;6.85;;;5.80;;
20888;SDS011;10604;51.976;7.594;2022-08-19T01:43:39;6.83;;;6.20;;
20888;SDS011;10604;51.976;7.594;2022-08-19T01:46:05;5.90;;;5.40;;
20888;SDS011;10604;51.976;7.594;2022-08-19T01:48:34;7.28;;;6.30;;
20888;SDS011;10604;51.976;7.594;2022-08-19T01:51:02;5.95;;;5.40;;
20888;SDS011;10604;51.976;7.594;2022-08-19T01:53:28;6.47;;;5.88;;
20888;SDS011;10604;51.976;7.594;2022-08-19T01:55:54;6.93;;;6.20;;
20888;SDS011;10604;51.976;7.594;2022-08-19T01:58:20;6.60;;;6.00;;
20888;SDS011;10604;51.976;7.594;2022-08-19T02:00:50;6.97;;;6.27;;
20888;SDS011;10604;51.976;7.594;2022-08-19T02:03:16;6.70;;;6.00;;
20888;SDS011;10604;51.976;7.594;2022-08-19T02:05:42;5.90;;;5.40;;
20888;SDS011;10604;51.976;7.594;2022-08-19T02:08:09;7.18;;;6.50;;
20888;SDS011;10604;51.976;7.594;2022-08-19T02:10:38;6.80;;;6.20;;
20888;SDS011;10604;51.976;7.594;2022-08-19T02:13:05;6.50;;;5.90;;
20888;SDS011;10604;51.976;7.594;2022-08-19T02:15:31;6.83;;;6.20;;
20888;SDS011;10604;51.976;7.594;2022-08-19T02:17:57;6.80;;;6.20;;
20888;SDS011;10604;51.976;7.594;2022-08-19T02:20:22;6.33;;;5.83;;
20888;SDS011;10604;51.976;7.594;2022-08-19T02:22:47;6.53;;;5.93;;
20888;SDS011;10604;51.976;7.594;2022-08-19T02:25:13;6.30;;;5.73;;
20888;SDS011;10604;51.976;7.594;2022-08-19T02:27:39;7.25;;;6.60;;
20888;SDS011;10604;51.976;7.594;2022-08-19T02:30:06;6.75;;;6.13;;
20888;SDS011;10604;51.976;7.594;2022-08-19T02:32:34;7.57;;;6.68;;
20888;SDS011;10604;51.976;7.594;2022-08-19T02:34:59;6.43;;;5.83;;
20888;SDS011;10604;51.976;7.594;2022-08-19T02:37:25;7.15;;;6.45;;
20888;SDS011;10604;51.976;7.594;2022-08-19T02:40:09;7.38;;;6.78;;
20888;SDS011;10604;51.976;7.594;2022-08-19T02:42:35;7.70;;;7.00;;
20888;SDS011;10604;51.976;7.594;2022-08-19T02:45:01;7.90;;;6.80;;
20888;SDS011;10604;51.976;7.594;2022-08-19T02:47:26;8.02;;;7.22;;
20888;SDS011;10604;51.976;7.594;2022-08-19T02:49:51;7.47;;;6.77;;
20888;SDS011;10604;51.976;7.594;2022-08-19T02:52:17;7.90;;;7.17;;
20888;SDS011;10604;51.976;7.594;2022-08-19T02:54:42;7.40;;;6.70;;
20888;SDS011;10604;51.976;7.594;2022-08-19T02:57:08;8.10;;;7.40;;
20888;SDS011;10604;51.976;7.594;2022-08-19T02:59:34;10.50;;;8.40;;
20888;SDS011;10604;51.976;7.594;2022-08-19T03:02:00;8.65;;;7.85;;
20888;SDS011;10604;51.976;7.594;2022-08-19T03:04:25;8.50;;;7.70;;
20888;SDS011;10604;51.976;7.594;2022-08-19T03:06:51;8.63;;;7.82;;
20888;SDS011;10604;51.976;7.594;2022-08-19T03:09:17;8.40;;;7.53;;
20888;SDS011;10604;51.976;7.594;2022-08-19T03:11:44;8.68;;;7.78;;
20888;SDS011;10604;51.976;7.594;2022-08-19T03:14:11;8.50;;;7.63;;
20888;SDS011;10604;51.976;7.594;2022-08-19T03:16:42;8.25;;;7.22;;
20888;SDS011;10604;51.976;7.594;2022-08-19T03:19:13;8.48;;;7.57;;
20888;SDS011;10604;51.976;7.594;2022-08-19T03:21:41;8.10;;;7.30;;
20888;SDS011;10604;51.976;7.594;2022-08-19T03:24:09;7.90;;;7.20;;
20888;SDS011;10604;51.976;7.594;2022-08-19T03:26:37;8.20;;;7.40;;
20888;SDS011;10604;51.976;7.594;2022-08-19T03:29:04;8.40;;;7.60;;
20888;SDS011;10604;51.976;7.594;2022-08-19T03:31:30;8.32;;;7.53;;
20888;SDS011;10604;51.976;7.594;2022-08-19T03:33:56;7.90;;;7.20;;
20888;SDS011;10604;51.976;7.594;2022-08-19T03:36:23;8.45;;;7.65;;
20888;SDS011;10604;51.976;7.594;2022-08-19T03:38:51;8.65;;;7.80;;
20888;SDS011;10604;51.976;7.594;2022-08-19T03:41:20;8.07;;;7.28;;
20888;SDS011;10604;51.976;7.594;2022-08-19T03:43:47;8.60;;;7.75;;
20888;SDS011;10604;51.976;7.594;2022-08-19T03:46:18;8.20;;;7.40;;
20888;SDS011;10604;51.976;7.594;2022-08-19T03:48:46;8.55;;;7.70;;
20888;SDS011;10604;51.976;7.594;2022-08-19T03:51:16;8.48;;;7.65;;
20888;SDS011;10604;51.976;7.594;2022-08-19T03:53:45;8.25;;;7.45;;
20888;SDS011;10604;51.976;7.594;2022-08-19T03:56:11;9.15;;;8.25;;
20888;SDS011;10604;51.976;7.594;2022-08-19T03:58:37;8.67;;;7.83;;
20888;SDS011;10604;51.976;7.594;2022-08-19T04:01:07;9.40;;;8.48;;
20888;SDS011;10604;51.976;7.594;2022-08-19T04:03:33;8.73;;;7.82;;
20888;SDS011;10604;51.976;7.594;2022-08-19T04:06:08;10.43;;;8.87;;
20888;SDS011;10604;51.976;7.594;2022-08-19T04:08:35;9.37;;;8.57;;
20888;SDS011;10604;51.976;7.594;2022-08-19T04:11:01;9.37;;;8.47;;
20888;SDS011;10604;51.976;7.594;2022-08-19T04:13:31;8.90;;;8.02;;
20888;SDS011;10604;51.976;7.594;2022-08-19T04:15:56;9.93;;;8.30;;
20888;SDS011;10604;51.976;7.594;2022-08-19T04:18:22;9.77;;;8.87;;
20888;SDS011;10604;51.976;7.594;2022-08-19T04:20:47;9.93;;;8.82;;
20888;SDS011;10604;51.976;7.594;2022-08-19T04:23:13;10.30;;;9.30;;
20888;SDS011;10604;51.976;7.594;2022-08-19T04:25:41;10.07;;;9.27;;
20888;SDS011;10604;51.976;7.594;2022-08-19T04:28:08;10.65;;;9.55;;
20888;SDS011;10604;51.976;7.594;2022-08-19T04:30:41;10.70;;;9.57;;
20888;SDS011;10604;51.976;7.594;2022-08-19T04:33:08;10.85;;;9.75;;
20888;SDS011;10604;51.976;7.594;2022-08-19T04:35:38;11.03;;;10.00;;
20888;SDS011;10604;51.976;7.594;2022-08-19T04:38:05;10.90;;;9.90;;
20888;SDS011;10604;51.976;7.594;2022-08-19T04:40:30;11.13;;;10.03;;
20888;SDS011;10604;51.976;7.594;2022-08-19T04:43:32;10.38;;;9.38;;
20888;SDS011;10604;51.976;7.594;2022-08-19T04:46:04;10.13;;;9.23;;
20888;SDS011;10604;51.976;7.594;2022-08-19T04:48:35;10.85;;;9.85;;
20888;SDS011;10604;51.976;7.594;2022-08-19T04:51:05;11.95;;;10.75;;
20888;SDS011;10604;51.976;7.594;2022-08-19T04:53:32;10.75;;;9.75;;
20888;SDS011;10604;51.976;7.594;2022-08-19T04:56:03;11.73;;;10.52;;
20888;SDS011;10604;51.976;7.594;2022-08-19T04:58:31;11.20;;;10.07;;
20888;SDS011;10604;51.976;7.594;2022-08-19T05:00:57;10.80;;;9.88;;
20888;SDS011;10604;51.976;7.594;2022-08-19T05:03:25;10.75;;;9.68;;
20888;SDS011;10604;51.976;7.594;2022-08-19T05:05:51;10.73;;;9.73;;
20888;SDS011;10604;51.976;7.594;2022-08-19T05:08:17;10.90;;;9.83;;
20888;SDS011;10604;51.976;7.594;2022-08-19T05:10:45;11.57;;;10.48;;
20888;SDS011;10604;51.976;7.594;2022-08-19T05:13:16;11.60;;;10.52;;
20888;SDS011;10604;51.976;7.594;2022-08-19T05:15:43;11.02;;;10.02;;
20888;SDS011;10604;51.976;7.594;2022-08-19T05:18:09;12.25;;;11.15;;
20888;SDS011;10604;51.976;7.594;2022-08-19T05:20:53;11.90;;;10.80;;
20888;SDS011;10604;51.976;7.594;2022-08-19T05:23:37;10.93;;;9.93;;
20888;SDS011;10604;51.976;7.594;2022-08-19T05:26:03;12.10;;;11.00;;
20888;SDS011;10604;51.976;7.594;2022-08-19T05:28:29;12.50;;;11.40;;
20888;SDS011;10604;51.976;7.594;2022-08-19T05:30:55;14.48;;;12.98;;
20888;SDS011;10604;51.976;7.594;2022-08-19T05:33:20;17.00;;;15.40;;
20888;SDS011;10604;51.976;7.594;2022-08-19T05:35:47;12.10;;;10.82;;
20888;SDS011;10604;51.976;7.594;2022-08-19T05:38:14;10.48;;;9.52;;
20888;SDS011;10604;51.976;7.594;2022-08-19T05:40:41;11.60;;;10.50;;
20888;SDS011;10604;51.976;7.594;2022-08-19T05:43:06;10.20;;;9.20;;
20888;SDS011;10604;51.976;7.594;2022-08-19T05:45:37;11.38;;;10.18;;
20888;SDS011;10604;51.976;7.594;2022-08-19T05:48:05;9.95;;;9.15;;
20888;SDS011;10604;51.976;7.594;2022-08-19T05:50:30;11.20;;;10.10;;
20888;SDS011;10604;51.976;7.594;2022-08-19T05:52:56;11.52;;;10.43;;
20888;SDS011;10604;51.976;7.594;2022-08-19T05:55:21;12.00;;;10.80;;
20888;SDS011;10604;51.976;7.594;2022-08-19T05:57:47;11.77;;;10.68;;
20888;SDS011;10604;51.976;7.594;2022-08-19T06:00:13;12.65;;;11.43;;
20888;SDS011;10604;51.976;7.594;2022-08-19T06:02:39;12.47;;;11.30;;
20888;SDS011;10604;51.976;7.594;2022-08-19T06:05:05;12.03;;;10.83;;
20888;SDS011;10604;51.976;7.594;2022-08-19T06:07:32;12.40;;;11.07;;
20888;SDS011;10604;51.976;7.594;2022-08-19T06:09:58;12.82;;;11.52;;
20888;SDS011;10604;51.976;7.594;2022-08-19T06:12:23;12.15;;;10.95;;
20888;SDS011;10604;51.976;7.594;2022-08-19T06:14:53;12.68;;;11.38;;
20888;SDS011;10604;51.976;7.594;2022-08-19T06:17:19;15.68;;;12.27;;
20888;SDS011;10604;51.976;7.594;2022-08-19T06:19:47;14.27;;;12.93;;
20888;SDS011;10604;51.976;7.594;2022-08-19T06:22:14;13.57;;;12.23;;
20888;SDS011;10604;51.976;7.594;2022-08-19T06:24:41;15.87;;;13.97;;
20888;SDS011;10604;51.976;7.594;2022-08-19T06:27:06;16.93;;;13.67;;
20888;SDS011;10604;51.976;7.594;2022-08-19T06:29:31;14.53;;;13.00;;
20888;SDS011;10604;51.976;7.594;2022-08-19T06:31:58;17.10;;;13.65;;
20888;SDS011;10604;51.976;7.594;2022-08-19T06:34:27;16.40;;;14.60;;
20888;SDS011;10604;51.976;7.594;2022-08-19T06:36:54;15.93;;;14.38;;
20888;SDS011;10604;51.976;7.594;2022-08-19T06:39:25;14.80;;;13.40;;
20888;SDS011;10604;51.976;7.594;2022-08-19T06:41:54;17.75;;;14.60;;
20888;SDS011;10604;51.976;7.594;2022-08-19T06:44:22;22.17;;;15.02;;
20888;SDS011;10604;51.976;7.594;2022-08-19T06:46:50;19.20;;;13.15;;
20888;SDS011;10604;51.976;7.594;2022-08-19T06:49:16;22.27;;;15.53;;
20888;SDS011;10604;51.976;7.594;2022-08-19T06:51:43;20.38;;;15.30;;
20888;SDS011;10604;51.976;7.594;2022-08-19T06:54:12;19.42;;;14.82;;
20888;SDS011;10604;51.976;7.594;2022-08-19T06:56:38;16.33;;;14.60;;
20888;SDS011;10604;51.976;7.594;2022-08-19T06:59:05;18.73;;;14.37;;
20888;SDS011;10604;51.976;7.594;2022-08-19T07:01:52;20.42;;;14.57;;
20888;SDS011;10604;51.976;7.594;2022-08-19T07:04:20;17.92;;;15.75;;
20888;SDS011;10604;51.976;7.594;2022-08-19T07:07:13;16.95;;;14.65;;
20888;SDS011;10604;51.976;7.594;2022-08-19T07:09:40;17.63;;;15.60;;
20888;SDS011;10604;51.976;7.594;2022-08-19T07:12:08;18.42;;;14.13;;
20888;SDS011;10604;51.976;7.594;2022-08-19T07:14:35;17.83;;;14.70;;
20888;SDS011;10604;51.976;7.594;2022-08-19T07:17:03;16.55;;;14.05;;
20888;SDS011;10604;51.976;7.594;2022-08-19T07:19:31;17.73;;;14.55;;
20888;SDS011;10604;51.976;7.594;2022-08-19T07:21:56;16.73;;;14.93;;
20888;SDS011;10604;51.976;7.594;2022-08-19T07:24:24;18.10;;;14.70;;
20888;SDS011;10604;51.976;7.594;2022-08-19T07:26:51;16.40;;;14.00;;
20888;SDS011;10604;51.976;7.594;2022-08-19T07:29:18;16.35;;;13.85;;
20888;SDS011;10604;51.976;7.594;2022-08-19T07:31:48;18.92;;;14.90;;
20888;SDS011;10604;51.976;7.594;2022-08-19T07:34:14;15.85;;;14.07;;
20888;SDS011;10604;51.976;7.594;2022-08-19T07:36:41;15.57;;;13.77;;
20888;SDS011;10604;51.976;7.594;2022-08-19T07:39:13;17.83;;;13.57;;
20888;SDS011;10604;51.976;7.594;2022-08-19T07:41:41;16.65;;;13.90;;
20888;SDS011;10604;51.976;7.594;2022-08-19T07:44:08;14.10;;;12.65;;
20888;SDS011;10604;51.976;7.594;2022-08-19T07:46:34;15.73;;;13.60;;
20888;SDS011;10604;51.976;7.594;2022-08-19T07:49:02;17.98;;;13.45;;
20888;SDS011;10604;51.976;7.594;2022-08-19T07:51:28;19.10;;;15.10;;
20888;SDS011;10604;51.976;7.594;2022-08-19T07:53:54;17.43;;;15.37;;
20888;SDS011;10604;51.976;7.594;2022-08-19T07:56:21;14.98;;;13.32;;
20888;SDS011;10604;51.976;7.594;2022-08-19T07:58:48;17.27;;;13.43;;
20888;SDS011;10604;51.976;7.594;2022-08-19T08:01:16;17.02;;;14.35;;
20888;SDS011;10604;51.976;7.594;2022-08-19T08:03:43;15.70;;;12.37;;
20888;SDS011;10604;51.976;7.594;2022-08-19T08:06:28;13.82;;;12.52;;
20888;SDS011;10604;51.976;7.594;2022-08-19T08:09:15;15.70;;;13.63;;
20888;SDS011;10604;51.976;7.594;2022-08-19T08:11:49;17.05;;;14.60;;
20888;SDS011;10604;51.976;7.594;2022-08-19T08:14:19;16.52;;;14.68;;
20888;SDS011;10604;51.976;7.594;2022-08-19T08:16:47;16.93;;;13.30;;
20888;SDS011;10604;51.976;7.594;2022-08-19T08:19:16;14.70;;;12.95;;
20888;SDS011;10604;51.976;7.594;2022-08-19T08:21:43;13.80;;;11.80;;
20888;SDS011;10604;51.976;7.594;2022-08-19T08:24:09;14.80;;;11.73;;
20888;SDS011;10604;51.976;7.594;2022-08-19T08:26:35;11.67;;;10.50;;
20888;SDS011;10604;51.976;7.594;2022-08-19T08:29:01;12.27;;;9.90;;
20888;SDS011;10604;51.976;7.594;2022-08-19T08:31:26;11.90;;;10.70;;
20888;SDS011;10604;51.976;7.594;2022-08-19T08:33:53;12.23;;;10.13;;
20888;SDS011;10604;51.976;7.594;2022-08-19T08:36:18;10.87;;;9.60;;
20888;SDS011;10604;51.976;7.594;2022-08-19T08:38:44;12.70;;;9.60;;
20888;SDS011;10604;51.976;7.594;2022-08-19T08:43:53;9.13;;;8.20;;
20888;SDS011;10604;51.976;7.594;2022-08-19T08:49:31;9.07;;;8.17;;
20888;SDS011;10604;51.976;7.594;2022-08-19T08:52:06;9.82;;;8.80;;
20888;SDS011;10604;51.976;7.594;2022-08-19T08:54:42;8.95;;;7.57;;
20888;SDS011;10604;51.976;7.594;2022-08-19T08:57:12;9.07;;;8.17;;
20888;SDS011;10604;51.976;7.594;2022-08-19T08:59:43;8.65;;;7.78;;
20888;SDS011;10604;51.976;7.594;2022-08-19T09:02:16;10.32;;;8.95;;
20888;SDS011;10604;51.976;7.594;2022-08-19T09:04:42;9.00;;;8.10;;
20888;SDS011;10604;51.976;7.594;2022-08-19T09:07:14;10.35;;;9.18;;
20888;SDS011;10604;51.976;7.594;2022-08-19T09:09:54;9.40;;;7.78;;
20888;SDS011;10604;51.976;7.594;2022-08-19T09:12:35;8.18;;;6.80;;
20888;SDS011;10604;51.976;7.594;2022-08-19T09:15:22;9.60;;;8.50;;
20888;SDS011;10604;51.976;7.594;2022-08-19T09:17:58;8.38;;;7.53;;
20888;SDS011;10604;51.976;7.594;2022-08-19T09:20:26;9.43;;;8.52;;
20888;SDS011;10604;51.976;7.594;2022-08-19T09:22:52;7.90;;;7.10;;
20888;SDS011;10604;51.976;7.594;2022-08-19T09:25:19;10.57;;;9.40;;
20888;SDS011;10604;51.976;7.594;2022-08-19T09:27:48;10.38;;;9.27;;
20888;SDS011;10604;51.976;7.594;2022-08-19T09:30:17;10.05;;;9.05;;
20888;SDS011;10604;51.976;7.594;2022-08-19T09:32:46;8.77;;;7.88;;
20888;SDS011;10604;51.976;7.594;2022-08-19T09:35:13;11.83;;;10.00;;
20888;SDS011;10604;51.976;7.594;2022-08-19T09:37:39;10.15;;;7.65;;
20888;SDS011;10604;51.976;7.594;2022-08-19T09:40:06;11.80;;;9.27;;
20888;SDS011;10604;51.976;7.594;2022-08-19T09:42:32;9.73;;;8.10;;
20888;SDS011;10604;51.976;7.594;2022-08-19T09:44:58;7.93;;;6.82;;
20888;SDS011;10604;51.976;7.594;2022-08-19T09:47:24;6.53;;;5.93;;
20888;SDS011;10604;51.976;7.594;2022-08-19T09:49:49;7.47;;;6.30;;
20888;SDS011;10604;51.976;7.594;2022-08-19T09:52:15;8.70;;;6.37;;
20888;SDS011;10604;51.976;7.594;2022-08-19T09:54:41;6.75;;;5.22;;
20888;SDS011;10604;51.976;7.594;2022-08-19T09:57:07;5.60;;;4.60;;
20888;SDS011;10604;51.976;7.594;2022-08-19T09:59:33;5.65;;;4.53;;
20888;SDS011;10604;51.976;7.594;2022-08-19T10:01:59;5.35;;;4.30;;
20888;SDS011;10604;51.976;7.594;2022-08-19T10:04:24;5.47;;;4.07;;
20888;SDS011;10604;51.976;7.594;2022-08-19T10:07:10;5.15;;;4.68;;
20888;SDS011;10604;51.976;7.594;2022-08-19T10:09:36;5.85;;;4.13;;
20888;SDS011;10604;51.976;7.594;2022-08-19T10:12:02;6.47;;;5.13;;
20888;SDS011;10604;51.976;7.594;2022-08-19T10:14:29;5.83;;;4.20;;
20888;SDS011;10604;51.976;7.594;2022-08-19T10:16:54;6.03;;;4.75;;
20888;SDS011;10604;51.976;7.594;2022-08-19T10:19:21;5.20;;;4.63;;
20888;SDS011;10604;51.976;7.594;2022-08-19T10:21:47;4.73;;;4.30;;
20888;SDS011;10604;51.976;7.594;2022-08-19T10:24:12;5.87;;;4.67;;
20888;SDS011;10604;51.976;7.594;2022-08-19T10:26:38;5.38;;;4.68;;
20888;SDS011;10604;51.976;7.594;2022-08-19T10:29:09;6.10;;;5.22;;
20888;SDS011;10604;51.976;7.594;2022-08-19T10:31:36;6.25;;;5.18;;
20888;SDS011;10604;51.976;7.594;2022-08-19T10:34:02;5.73;;;5.03;;
20888;SDS011;10604;51.976;7.594;2022-08-19T10:36:28;8.18;;;4.88;;
20888;SDS011;10604;51.976;7.594;2022-08-19T10:38:59;6.13;;;3.73;;
20888;SDS011;10604;51.976;7.594;2022-08-19T10:41:28;4.85;;;3.45;;
20888;SDS011;10604;51.976;7.594;2022-08-19T10:43:56;4.40;;;3.97;;
20888;SDS011;10604;51.976;7.594;2022-08-19T10:46:24;4.80;;;4.00;;
20888;SDS011;10604;51.976;7.594;2022-08-19T10:48:51;5.10;;;3.70;;
20888;SDS011;10604;51.976;7.594;2022-08-19T10:51:18;3.83;;;3.42;;
20888;SDS011;10604;51.976;7.594;2022-08-19T10:54:03;5.78;;;4.07;;
20888;SDS011;10604;51.976;7.594;2022-08-19T10:56:28;4.93;;;3.40;;
20888;SDS011;10604;51.976;7.594;2022-08-19T10:59:13;4.25;;;3.80;;
20888;SDS011;10604;51.976;7.594;2022-08-19T11:01:40;4.78;;;4.20;;
20888;SDS011;10604;51.976;7.594;2022-08-19T11:04:07;4.27;;;3.87;;
20888;SDS011;10604;51.976;7.594;2022-08-19T11:06:38;4.13;;;3.72;;
20888;SDS011;10604;51.976;7.594;2022-08-19T11:09:07;3.85;;;3.53;;
20888;SDS011;10604;51.976;7.594;2022-08-19T11:11:33;4.47;;;3.50;;
20888;SDS011;10604;51.976;7.594;2022-08-19T11:14:09;4.65;;;3.10;;
20888;SDS011;10604;51.976;7.594;2022-08-19T11:16:37;4.32;;;3.28;;
20888;SDS011;10604;51.976;7.594;2022-08-19T11:19:04;3.85;;;3.30;;
20888;SDS011;10604;51.976;7.594;2022-08-19T11:21:34;4.25;;;3.45;;
20888;SDS011;10604;51.976;7.594;2022-08-19T11:24:03;3.42;;;3.13;;
20888;SDS011;10604;51.976;7.594;2022-08-19T11:26:32;6.18;;;2.88;;
20888;SDS011;10604;51.976;7.594;2022-08-19T11:28:59;3.65;;;3.30;;
20888;SDS011;10604;51.976;7.594;2022-08-19T11:31:29;5.22;;;3.92;;
20888;SDS011;10604;51.976;7.594;2022-08-19T11:33:57;5.18;;;3.58;;
20888;SDS011;10604;51.976;7.594;2022-08-19T11:36:25;5.50;;;3.70;;
20888;SDS011;10604;51.976;7.594;2022-08-19T11:38:51;4.30;;;3.40;;
20888;SDS011;10604;51.976;7.594;2022-08-19T11:41:17;5.10;;;4.00;;
20888;SDS011;10604;51.976;7.594;2022-08-19T11:43:44;5.40;;;4.50;;
20888;SDS011;10604;51.976;7.594;2022-08-19T11:46:11;5.00;;;4.53;;
20888;SDS011;10604;51.976;7.594;2022-08-19T11:48:38;5.53;;;4.22;;
20888;SDS011;10604;51.976;7.594;2022-08-19T11:51:05;5.15;;;4.65;;
20888;SDS011;10604;51.976;7.594;2022-08-19T11:53:32;4.40;;;4.00;;
20888;SDS011;10604;51.976;7.594;2022-08-19T11:55:59;4.90;;;4.00;;
20888;SDS011;10604;51.976;7.594;2022-08-19T11:58:25;5.65;;;5.07;;
20888;SDS011;10604;51.976;7.594;2022-08-19T12:00:51;5.03;;;4.50;;
20888;SDS011;10604;51.976;7.594;2022-08-19T12:03:17;4.83;;;4.30;;
20888;SDS011;10604;51.976;7.594;2022-08-19T12:05:47;6.07;;;5.30;;
20888;SDS011;10604;51.976;7.594;2022-08-19T12:08:12;6.45;;;5.57;;
20888;SDS011;10604;51.976;7.594;2022-08-19T12:10:39;6.13;;;5.50;;
20888;SDS011;10604;51.976;7.594;2022-08-19T12:13:05;6.30;;;5.68;;
20888;SDS011;10604;51.976;7.594;2022-08-19T12:15:37;6.15;;;5.55;;
20888;SDS011;10604;51.976;7.594;2022-08-19T12:18:05;5.97;;;5.45;;
20888;SDS011;10604;51.976;7.594;2022-08-19T12:20:36;11.35;;;7.72;;
20888;SDS011;10604;51.976;7.594;2022-08-19T12:23:03;9.63;;;8.20;;
20888;SDS011;10604;51.976;7.594;2022-08-19T12:25:29;6.80;;;6.20;;
20888;SDS011;10604;51.976;7.594;2022-08-19T12:27:56;6.88;;;6.28;;
20888;SDS011;10604;51.976;7.594;2022-08-19T12:30:21;8.68;;;7.85;;
20888;SDS011;10604;51.976;7.594;2022-08-19T12:32:47;7.77;;;7.07;;
20888;SDS011;10604;51.976;7.594;2022-08-19T12:35:12;8.43;;;7.10;;
20888;SDS011;10604;51.976;7.594;2022-08-19T12:37:38;8.68;;;7.68;;
20888;SDS011;10604;51.976;7.594;2022-08-19T12:40:09;8.73;;;7.13;;
20888;SDS011;10604;51.976;7.594;2022-08-19T12:42:37;7.50;;;6.80;;
20888;SDS011;10604;51.976;7.594;2022-08-19T12:45:06;7.85;;;7.05;;
20888;SDS011;10604;51.976;7.594;2022-08-19T12:47:32;7.03;;;6.43;;
20888;SDS011;10604;51.976;7.594;2022-08-19T12:49:58;6.90;;;6.30;;
20888;SDS011;10604;51.976;7.594;2022-08-19T12:52:24;6.17;;;5.67;;
20888;SDS011;10604;51.976;7.594;2022-08-19T12:54:52;7.05;;;6.30;;
20888;SDS011;10604;51.976;7.594;2022-08-19T12:57:19;6.40;;;5.80;;
20888;SDS011;10604;51.976;7.594;2022-08-19T12:59:45;6.72;;;6.13;;
20888;SDS011;10604;51.976;7.594;2022-08-19T13:02:10;6.50;;;5.90;;
20888;SDS011;10604;51.976;7.594;2022-08-19T13:04:36;6.00;;;5.50;;
20888;SDS011;10604;51.976;7.594;2022-08-19T13:07:05;5.90;;;5.40;;
20888;SDS011;10604;51.976;7.594;2022-08-19T13:09:32;6.13;;;5.33;;
20888;SDS011;10604;51.976;7.594;2022-08-19T13:11:58;6.50;;;5.90;;
20888;SDS011;10604;51.976;7.594;2022-08-19T13:14:25;7.43;;;6.40;;
20888;SDS011;10604;51.976;7.594;2022-08-19T13:16:50;5.77;;;5.27;;
20888;SDS011;10604;51.976;7.594;2022-08-19T13:19:16;6.30;;;5.70;;
20888;SDS011;10604;51.976;7.594;2022-08-19T13:21:45;6.13;;;5.47;;
20888;SDS011;10604;51.976;7.594;2022-08-19T13:24:14;6.18;;;5.57;;
20888;SDS011;10604;51.976;7.594;2022-08-19T13:26:40;6.17;;;5.57;;
20888;SDS011;10604;51.976;7.594;2022-08-19T13:29:05;5.23;;;4.77;;
20888;SDS011;10604;51.976;7.594;2022-08-19T13:31:49;10.05;;;4.90;;
20888;SDS011;10604;51.976;7.594;2022-08-19T13:34:33;5.95;;;4.30;;
20888;SDS011;10604;51.976;7.594;2022-08-19T13:37:01;4.55;;;4.15;;
20888;SDS011;10604;51.976;7.594;2022-08-19T13:39:28;4.72;;;4.35;;
20888;SDS011;10604;51.976;7.594;2022-08-19T13:41:55;6.28;;;4.47;;
20888;SDS011;10604;51.976;7.594;2022-08-19T13:44:21;5.55;;;5.13;;
20888;SDS011;10604;51.976;7.594;2022-08-19T13:46:47;7.15;;;5.72;;
20888;SDS011;10604;51.976;7.594;2022-08-19T13:49:15;6.13;;;5.63;;
20888;SDS011;10604;51.976;7.594;2022-08-19T13:51:41;6.75;;;5.47;;
20888;SDS011;10604;51.976;7.594;2022-08-19T13:54:08;5.30;;;4.90;;
20888;SDS011;10604;51.976;7.594;2022-08-19T13:56:35;6.50;;;5.90;;
20888;SDS011;10604;51.976;7.594;2022-08-19T13:59:05;5.13;;;4.63;;
20888;SDS011;10604;51.976;7.594;2022-08-19T14:01:31;7.15;;;5.05;;
20888;SDS011;10604;51.976;7.594;2022-08-19T14:03:56;5.60;;;5.10;;
20888;SDS011;10604;51.976;7.594;2022-08-19T14:06:22;5.90;;;5.40;;
20888;SDS011;10604;51.976;7.594;2022-08-19T14:08:48;6.38;;;5.78;;
20888;SDS011;10604;51.976;7.594;2022-08-19T14:11:13;5.97;;;5.37;;
20888;SDS011;10604;51.976;7.594;2022-08-19T14:13:39;5.18;;;4.70;;
20888;SDS011;10604;51.976;7.594;2022-08-19T14:16:06;5.72;;;5.22;;
20888;SDS011;10604;51.976;7.594;2022-08-19T14:18:33;5.93;;;5.18;;
20888;SDS011;10604;51.976;7.594;2022-08-19T14:20:59;6.13;;;4.97;;
20888;SDS011;10604;51.976;7.594;2022-08-19T14:23:24;6.25;;;5.50;;
20888;SDS011;10604;51.976;7.594;2022-08-19T14:25:50;6.30;;;5.70;;
20888;SDS011;10604;51.976;7.594;2022-08-19T14:28:15;6.20;;;5.60;;
20888;SDS011;10604;51.976;7.594;2022-08-19T14:30:41;5.40;;;4.90;;
20888;SDS011;10604;51.976;7.594;2022-08-19T14:33:07;7.30;;;5.80;;
20888;SDS011;10604;51.976;7.594;2022-08-19T14:35:33;6.35;;;5.85;;
20888;SDS011;10604;51.976;7.594;2022-08-19T14:37:59;5.57;;;5.07;;
20888;SDS011;10604;51.976;7.594;2022-08-19T14:40:26;5.90;;;5.40;;
20888;SDS011;10604;51.976;7.594;2022-08-19T14:42:54;5.87;;;5.37;;
20888;SDS011;10604;51.976;7.594;2022-08-19T14:45:24;6.55;;;5.63;;
20888;SDS011;10604;51.976;7.594;2022-08-19T14:47:53;5.68;;;5.18;;
20888;SDS011;10604;51.976;7.594;2022-08-19T14:50:19;5.77;;;5.23;;
20888;SDS011;10604;51.976;7.594;2022-08-19T14:52:45;5.45;;;4.70;;